createdAt,value
2019-05-06T00:00:20.066Z,5.20
2019-05-06T00:02:50.391Z,5.10
2019-05-06T00:05:20.732Z,5.00
2019-05-06T00:07:54.728Z,4.90
2019-05-06T00:10:35.157Z,4.90
2019-05-06T00:13:05.920Z,4.90
2019-05-06T00:15:36.258Z,5.00
2019-05-06T00:18:06.587Z,4.90
2019-05-06T00:20:36.938Z,4.90
2019-05-06T00:23:11.565Z,4.80
2019-05-06T00:25:46.479Z,4.60
2019-05-06T00:28:24.280Z,4.50
2019-05-06T00:31:14.002Z,4.40
2019-05-06T00:33:44.352Z,4.30
2019-05-06T00:36:14.782Z,4.20
2019-05-06T00:38:46.751Z,4.10
2019-05-06T00:41:30.571Z,4.00
2019-05-06T00:44:00.871Z,3.90
2019-05-06T00:46:31.463Z,3.80
2019-05-06T00:49:03.695Z,3.80
2019-05-06T00:51:34.077Z,3.70
2019-05-06T00:54:06.066Z,3.70
2019-05-06T00:56:36.404Z,3.60
2019-05-06T00:59:06.725Z,3.50
2019-05-06T01:01:37.158Z,3.50
2019-05-06T01:04:07.499Z,3.40
2019-05-06T01:06:37.838Z,3.40
2019-05-06T01:09:11.034Z,3.30
2019-05-06T01:11:42.142Z,3.30
2019-05-06T01:14:14.841Z,3.30
2019-05-06T01:16:45.392Z,3.30
2019-05-06T01:19:15.740Z,3.30
2019-05-06T01:21:46.078Z,3.30
2019-05-06T01:24:16.404Z,3.20
2019-05-06T01:26:46.742Z,3.20
2019-05-06T01:29:17.062Z,3.10
2019-05-06T01:31:47.406Z,3.10
2019-05-06T01:34:17.727Z,3.00
2019-05-06T01:36:48.063Z,3.00
2019-05-06T01:39:20.033Z,2.90
2019-05-06T01:41:53.636Z,2.90
2019-05-06T01:44:24.461Z,2.80
2019-05-06T01:46:54.841Z,2.80
2019-05-06T01:49:25.431Z,2.80
2019-05-06T01:51:55.775Z,2.80
2019-05-06T01:54:26.098Z,2.80
2019-05-06T01:56:56.433Z,2.90
2019-05-06T01:59:26.758Z,2.90
2019-05-06T02:02:01.028Z,2.90
2019-05-06T02:04:29.119Z,3.00
2019-05-06T02:06:59.460Z,3.00
2019-05-06T02:09:29.786Z,3.00
2019-05-06T02:12:00.124Z,3.00
2019-05-06T02:14:30.453Z,3.00
2019-05-06T02:17:03.651Z,3.00
2019-05-06T02:19:34.899Z,3.00
2019-05-06T02:22:09.618Z,3.00
2019-05-06T02:24:41.598Z,3.00
2019-05-06T02:27:13.850Z,3.00
2019-05-06T02:29:48.329Z,3.00
2019-05-06T02:32:26.011Z,3.00
2019-05-06T02:34:56.615Z,3.00
2019-05-06T02:37:28.588Z,3.00
2019-05-06T02:39:58.904Z,3.00
2019-05-06T02:42:29.583Z,3.00
2019-05-06T02:44:59.865Z,3.00
2019-05-06T02:47:34.258Z,3.00
2019-05-06T02:50:06.271Z,3.00
2019-05-06T02:52:36.617Z,3.10
2019-05-06T02:55:07.782Z,3.00
2019-05-06T02:57:39.097Z,3.10
2019-05-06T03:00:19.114Z,3.10
2019-05-06T03:02:49.412Z,3.10
2019-05-06T03:05:19.734Z,3.10
2019-05-06T03:07:50.076Z,3.20
2019-05-06T03:10:24.363Z,3.30
2019-05-06T03:12:54.135Z,3.40
2019-05-06T03:15:24.441Z,3.40
2019-05-06T03:17:55.570Z,3.50
2019-05-06T03:20:57.371Z,3.50
2019-05-06T03:23:48.700Z,3.50
2019-05-06T03:26:19.028Z,3.50
2019-05-06T03:28:49.358Z,3.50
2019-05-06T03:31:19.716Z,3.40
2019-05-06T03:34:36.005Z,3.40
2019-05-06T03:36:48.159Z,3.30
2019-05-06T03:39:13.942Z,3.20
2019-05-06T03:41:44.394Z,3.10
2019-05-06T03:44:16.710Z,3.00
2019-05-06T03:47:05.694Z,3.00
2019-05-06T03:49:54.100Z,2.90
2019-05-06T03:52:23.642Z,2.90
2019-05-06T03:54:55.761Z,2.80
2019-05-06T03:57:28.865Z,2.70
2019-05-06T04:00:04.293Z,2.60
2019-05-06T04:02:34.051Z,2.60
2019-05-06T04:05:24.055Z,2.50
2019-05-06T04:07:54.922Z,2.50
2019-05-06T04:10:25.255Z,2.50
2019-05-06T04:12:56.693Z,2.40
2019-05-06T04:15:30.029Z,2.40
2019-05-06T04:18:03.842Z,2.40
2019-05-06T04:20:43.541Z,2.40
2019-05-06T04:23:15.535Z,2.40
2019-05-06T04:25:59.734Z,2.40
2019-05-06T04:28:34.194Z,2.50
2019-05-06T04:31:05.233Z,2.60
2019-05-06T04:33:35.885Z,2.70
2019-05-06T04:36:06.234Z,2.80
2019-05-06T04:38:36.563Z,2.90
2019-05-06T04:41:06.977Z,2.90
2019-05-06T04:43:37.379Z,3.00
2019-05-06T04:46:07.714Z,3.10
2019-05-06T04:48:38.115Z,3.20
2019-05-06T04:51:08.516Z,3.20
2019-05-06T04:53:38.850Z,3.30
2019-05-06T04:56:09.658Z,3.30
2019-05-06T04:58:42.825Z,3.40
2019-05-06T05:01:15.728Z,3.50
2019-05-06T05:03:44.966Z,3.60
2019-05-06T05:06:15.309Z,3.70
2019-05-06T05:08:45.706Z,3.80
2019-05-06T05:11:22.614Z,4.00
2019-05-06T05:17:23.750Z,4.30
2019-05-06T05:19:54.281Z,4.50
2019-05-06T05:22:36.734Z,4.70
2019-05-06T05:25:26.453Z,4.90
2019-05-06T05:27:56.784Z,5.10
2019-05-06T05:30:27.546Z,5.30
2019-05-06T05:32:57.901Z,5.60
2019-05-06T05:35:28.304Z,5.80
2019-05-06T05:37:58.778Z,6.10
2019-05-06T05:40:29.114Z,6.80
2019-05-06T05:43:22.329Z,7.60
2019-05-06T05:45:52.829Z,8.70
2019-05-06T05:51:29.373Z,9.00
2019-05-06T05:54:02.067Z,10.00
2019-05-06T05:56:32.931Z,10.80
2019-05-06T05:59:03.555Z,11.50
2019-05-06T06:01:34.108Z,12.00
2019-05-06T06:04:04.638Z,12.70
2019-05-06T06:06:35.039Z,13.70
2019-05-06T06:09:07.882Z,14.60
2019-05-06T06:11:41.980Z,15.50
2019-05-06T06:14:13.598Z,15.50
2019-05-06T06:16:48.428Z,14.80
2019-05-06T06:19:23.386Z,14.10
2019-05-06T06:21:55.418Z,13.60
2019-05-06T06:24:32.187Z,13.20
2019-05-06T06:27:03.250Z,12.80
2019-05-06T06:29:34.655Z,12.50
2019-05-06T06:32:13.754Z,12.20
2019-05-06T06:34:48.544Z,12.00
2019-05-06T06:37:33.248Z,11.80
2019-05-06T06:40:06.170Z,11.70
2019-05-06T06:42:36.561Z,11.60
2019-05-06T06:45:07.699Z,11.40
2019-05-06T06:47:38.029Z,11.40
2019-05-06T06:50:09.106Z,11.30
2019-05-06T06:52:39.441Z,11.30
2019-05-06T06:55:10.208Z,11.30
2019-05-06T06:57:52.044Z,11.40
2019-05-06T07:03:36.158Z,11.40
2019-05-06T07:06:08.131Z,11.30
2019-05-06T07:08:38.473Z,11.30
2019-05-06T07:11:08.819Z,11.30
2019-05-06T07:13:43.769Z,11.30
2019-05-06T07:16:14.112Z,11.20
2019-05-06T07:18:44.454Z,11.20
2019-05-06T07:21:16.442Z,11.10
2019-05-06T07:23:46.777Z,11.10
2019-05-06T07:26:18.765Z,11.20
2019-05-06T07:28:49.109Z,11.20
2019-05-06T07:31:23.685Z,11.20
2019-05-06T07:33:52.272Z,11.20
2019-05-06T07:36:22.892Z,11.30
2019-05-06T07:38:53.235Z,11.30
2019-05-06T07:41:32.858Z,11.30
2019-05-06T07:44:08.086Z,11.20
2019-05-06T07:46:45.979Z,11.20
2019-05-06T07:49:16.310Z,11.10
2019-05-06T07:51:46.663Z,11.10
2019-05-06T07:54:17.003Z,11.20
2019-05-06T07:56:47.355Z,11.20
2019-05-06T07:59:19.165Z,11.20
2019-05-06T08:01:49.524Z,11.30
2019-05-06T08:04:19.864Z,11.30
2019-05-06T08:06:52.207Z,11.30
2019-05-06T08:09:22.323Z,11.30
2019-05-06T08:11:53.163Z,11.30
2019-05-06T08:14:25.186Z,11.20
2019-05-06T08:16:57.168Z,11.10
2019-05-06T08:19:27.584Z,11.10
2019-05-06T08:22:02.814Z,11.10
2019-05-06T08:24:33.325Z,11.10
2019-05-06T08:27:04.086Z,11.10
2019-05-06T08:29:35.403Z,11.10
2019-05-06T08:32:05.843Z,11.10
2019-05-06T08:34:36.454Z,11.10
2019-05-06T08:37:08.454Z,11.10
2019-05-06T08:39:38.787Z,11.10
2019-05-06T08:42:09.140Z,11.10
2019-05-06T08:44:39.499Z,11.10
2019-05-06T08:47:09.808Z,11.10
2019-05-06T08:49:56.677Z,11.10
2019-05-06T08:52:28.661Z,11.10
2019-05-06T08:55:04.716Z,11.20
2019-05-06T08:57:35.091Z,11.30
2019-05-06T09:00:06.534Z,11.40
2019-05-06T09:02:37.058Z,11.60
2019-05-06T09:05:08.066Z,11.70
2019-05-06T09:07:38.482Z,11.90
2019-05-06T09:10:08.963Z,11.90
2019-05-06T09:12:39.317Z,12.10
2019-05-06T09:15:12.436Z,12.40
2019-05-06T09:17:42.400Z,12.50
2019-05-06T09:20:13.049Z,12.80
2019-05-06T09:22:43.400Z,13.00
2019-05-06T09:25:14.053Z,13.30
2019-05-06T09:27:48.815Z,13.50
2019-05-06T09:30:25.772Z,13.70
2019-05-06T09:32:56.122Z,14.00
2019-05-06T09:35:26.453Z,14.40
2019-05-06T09:37:56.804Z,14.80
2019-05-06T09:40:27.138Z,15.30
2019-05-06T09:42:57.483Z,15.70
2019-05-06T09:45:27.828Z,16.10
2019-05-06T09:48:05.932Z,16.50
2019-05-06T09:50:45.440Z,16.90
2019-05-06T09:53:15.244Z,17.30
2019-05-06T09:56:05.582Z,17.80
2019-05-06T09:58:37.563Z,18.00
2019-05-06T10:01:08.174Z,17.80
2019-05-06T10:03:39.686Z,17.90
2019-05-06T10:06:10.020Z,18.00
2019-05-06T10:08:40.428Z,18.10
2019-05-06T10:11:10.833Z,18.20
2019-05-06T10:13:43.140Z,18.00
2019-05-06T10:16:13.583Z,17.90
2019-05-06T10:18:43.917Z,17.90
2019-05-06T10:21:14.248Z,17.70
2019-05-06T10:23:44.605Z,17.60
2019-05-06T10:26:14.938Z,17.40
2019-05-06T10:28:52.376Z,17.60
2019-05-06T10:31:22.814Z,17.90
2019-05-06T10:34:13.973Z,17.90
2019-05-06T10:37:15.452Z,17.80
2019-05-06T10:39:48.786Z,17.50
2019-05-06T10:42:23.753Z,17.30
2019-05-06T10:45:18.223Z,17.20
2019-05-06T10:47:48.554Z,17.00
2019-05-06T10:50:18.917Z,16.80
2019-05-06T10:53:07.255Z,16.50
2019-05-06T10:55:42.618Z,16.10
2019-05-06T10:58:12.846Z,15.80
2019-05-06T11:00:43.325Z,15.50
2019-05-06T11:03:22.655Z,15.20
2019-05-06T11:05:53.770Z,15.00
2019-05-06T11:08:24.131Z,14.70
2019-05-06T11:10:54.486Z,14.40
2019-05-06T11:13:24.831Z,14.10
2019-05-06T11:15:55.761Z,13.80
2019-05-06T11:18:26.102Z,13.60
2019-05-06T11:20:56.824Z,13.60
2019-05-06T11:23:27.156Z,13.50
2019-05-06T11:25:57.507Z,13.40
2019-05-06T11:28:42.588Z,13.50
2019-05-06T11:31:17.838Z,13.60
2019-05-06T11:33:49.810Z,13.80
2019-05-06T11:36:32.323Z,13.90
2019-05-06T11:39:02.767Z,13.80
2019-05-06T11:41:34.739Z,14.00
2019-05-06T11:44:09.039Z,14.10
2019-05-06T11:46:38.454Z,14.10
2019-05-06T11:49:08.791Z,14.10
2019-05-06T11:51:39.214Z,14.00
2019-05-06T11:54:19.434Z,13.90
2019-05-06T11:56:50.700Z,13.90
2019-05-06T11:59:15.283Z,13.90
2019-05-06T12:01:47.336Z,14.00
2019-05-06T12:04:17.673Z,13.70
2019-05-06T12:06:48.024Z,13.40
2019-05-06T12:09:19.504Z,13.30
2019-05-06T12:11:52.649Z,13.20
2019-05-06T12:14:22.670Z,13.20
2019-05-06T12:16:55.133Z,13.20
2019-05-06T12:19:25.286Z,13.20
2019-05-06T12:21:55.638Z,13.10
2019-05-06T12:24:25.969Z,12.90
2019-05-06T12:26:56.307Z,12.90
2019-05-06T12:29:26.644Z,12.80
2019-05-06T12:32:03.521Z,12.80
2019-05-06T12:34:33.338Z,12.80
2019-05-06T12:37:05.319Z,12.90
2019-05-06T12:39:35.655Z,13.00
2019-05-06T12:42:11.716Z,13.00
2019-05-06T12:44:43.523Z,13.10
2019-05-06T12:47:15.517Z,13.20
2019-05-06T12:49:45.846Z,13.30
2019-05-06T12:52:16.185Z,13.30
2019-05-06T12:54:46.521Z,13.50
2019-05-06T12:57:16.924Z,13.60
2019-05-06T12:59:48.222Z,13.50
2019-05-06T13:02:18.556Z,13.30
2019-05-06T13:04:56.085Z,13.10
2019-05-06T13:07:22.575Z,12.90
2019-05-06T13:09:53.063Z,12.80
2019-05-06T13:12:26.042Z,12.60
2019-05-06T13:14:56.400Z,12.60
2019-05-06T13:17:29.343Z,12.40
2019-05-06T13:19:59.773Z,12.30
2019-05-06T13:22:40.881Z,12.20
2019-05-06T13:25:13.583Z,12.20
2019-05-06T13:27:46.026Z,12.20
2019-05-06T13:30:16.810Z,12.30
2019-05-06T13:32:48.771Z,12.50
2019-05-06T13:35:19.479Z,12.90
2019-05-06T13:37:49.813Z,13.20
2019-05-06T13:40:22.773Z,13.40
2019-05-06T13:43:06.012Z,13.50
2019-05-06T13:45:37.703Z,13.60
2019-05-06T13:48:13.303Z,13.90
2019-05-06T13:50:45.509Z,14.00
2019-05-06T13:53:15.838Z,13.90
2019-05-06T13:55:47.461Z,13.90
2019-05-06T13:58:17.782Z,13.70
2019-05-06T14:00:48.784Z,13.60
2019-05-06T14:03:19.121Z,13.60
2019-05-06T14:05:49.472Z,13.60
2019-05-06T14:08:21.700Z,13.70
2019-05-06T14:10:59.111Z,13.70
2019-05-06T14:13:23.887Z,13.70
2019-05-06T14:15:54.247Z,13.60
2019-05-06T14:18:24.584Z,13.70
2019-05-06T14:20:54.923Z,13.70
2019-05-06T14:23:25.258Z,13.80
2019-05-06T14:25:57.313Z,13.80
2019-05-06T14:28:44.702Z,13.70
2019-05-06T14:31:19.345Z,13.70
2019-05-06T14:33:52.103Z,13.50
2019-05-06T14:36:22.892Z,13.50
2019-05-06T14:38:54.462Z,13.40
2019-05-06T14:41:27.380Z,13.40
2019-05-06T14:43:57.914Z,13.50
2019-05-06T14:46:29.909Z,13.60
2019-05-06T14:49:04.080Z,13.60
2019-05-06T14:51:32.903Z,13.60
2019-05-06T14:54:03.384Z,13.40
2019-05-06T14:56:38.083Z,13.30
2019-05-06T14:59:08.423Z,13.10
2019-05-06T15:01:39.511Z,12.90
2019-05-06T15:04:12.556Z,12.80
2019-05-06T15:06:43.031Z,12.70
2019-05-06T15:09:13.711Z,12.60
2019-05-06T15:11:44.146Z,12.50
2019-05-06T15:14:14.879Z,12.50
2019-05-06T15:16:45.238Z,12.60
2019-05-06T15:19:15.578Z,12.60
2019-05-06T15:21:45.940Z,12.70
2019-05-06T15:24:20.972Z,12.70
2019-05-06T15:26:49.260Z,12.70
2019-05-06T15:29:19.603Z,12.70
2019-05-06T15:32:09.839Z,12.70
2019-05-06T15:34:47.583Z,12.70
2019-05-06T15:37:35.877Z,12.70
2019-05-06T15:40:08.189Z,12.90
2019-05-06T15:42:38.529Z,12.80
2019-05-06T15:45:12.457Z,12.80
2019-05-06T15:47:42.894Z,12.70
2019-05-06T15:50:14.720Z,12.70
2019-05-06T15:52:45.062Z,12.70
2019-05-06T15:55:15.752Z,12.80
2019-05-06T15:57:46.089Z,12.80
2019-05-06T16:00:19.796Z,12.70
2019-05-06T16:02:52.784Z,12.70
2019-05-06T16:05:26.341Z,12.70
2019-05-06T16:07:54.605Z,12.70
2019-05-06T16:10:25.206Z,12.60
2019-05-06T16:12:55.541Z,12.50
2019-05-06T16:15:25.877Z,12.50
2019-05-06T16:17:56.221Z,12.50
2019-05-06T16:20:26.546Z,12.50
2019-05-06T16:23:07.627Z,12.30
2019-05-06T16:25:37.960Z,12.30
2019-05-06T16:28:08.291Z,12.20
2019-05-06T16:30:38.633Z,12.20
2019-05-06T16:33:08.961Z,12.10
2019-05-06T16:35:39.294Z,12.00
2019-05-06T16:38:09.627Z,11.90
2019-05-06T16:40:42.639Z,11.80
2019-05-06T16:43:13.066Z,11.60
2019-05-06T16:45:45.520Z,11.40
2019-05-06T16:48:15.458Z,11.30
2019-05-06T16:50:46.762Z,11.30
2019-05-06T16:53:17.093Z,11.20
2019-05-06T16:55:55.630Z,11.10
2019-05-06T16:58:27.768Z,11.10
2019-05-06T17:00:58.103Z,11.00
2019-05-06T17:03:46.524Z,11.00
2019-05-06T17:06:27.419Z,10.90
2019-05-06T17:08:57.752Z,10.90
2019-05-06T17:11:33.408Z,10.80
2019-05-06T17:14:00.125Z,10.70
2019-05-06T17:16:30.462Z,10.60
2019-05-06T17:19:00.798Z,10.60
2019-05-06T17:21:33.256Z,10.60
2019-05-06T17:24:03.174Z,10.50
2019-05-06T17:26:34.000Z,10.50
2019-05-06T17:29:09.038Z,10.40
2019-05-06T17:31:43.938Z,10.40
2019-05-06T17:34:15.934Z,10.30
2019-05-06T17:36:46.844Z,10.30
2019-05-06T17:39:17.177Z,10.30
2019-05-06T17:41:49.078Z,10.20
2019-05-06T17:44:22.768Z,10.20
2019-05-06T17:46:59.043Z,10.20
2019-05-06T17:49:31.014Z,10.20
2019-05-06T17:52:08.956Z,10.10
2019-05-06T17:54:39.292Z,10.20
2019-05-06T17:57:09.628Z,10.20
2019-05-06T17:59:41.940Z,10.20
2019-05-06T18:02:14.930Z,10.20
2019-05-06T18:04:45.512Z,10.10
2019-05-06T18:07:15.842Z,10.10
2019-05-06T18:09:46.181Z,10.10
2019-05-06T18:12:18.143Z,10.10
2019-05-06T18:14:48.490Z,10.00
2019-05-06T18:17:18.821Z,10.00
2019-05-06T18:19:49.175Z,10.10
2019-05-06T18:22:19.498Z,10.00
2019-05-06T18:24:49.896Z,10.00
2019-05-06T18:27:22.487Z,10.00
2019-05-06T18:29:53.371Z,10.00
2019-05-06T18:32:23.678Z,10.00
2019-05-06T18:34:53.994Z,9.90
2019-05-06T18:37:24.336Z,9.90
2019-05-06T18:39:54.667Z,9.90
2019-05-06T18:42:25.070Z,9.90
2019-05-06T18:44:55.419Z,9.90
2019-05-06T18:47:25.741Z,9.80
2019-05-06T18:49:57.131Z,9.80
2019-05-06T18:52:27.460Z,9.70
2019-05-06T18:54:58.045Z,9.80
2019-05-06T18:57:28.314Z,9.70
2019-05-06T18:59:58.638Z,9.80
2019-05-06T19:02:28.972Z,9.70
2019-05-06T19:05:07.141Z,9.70
2019-05-06T19:07:37.483Z,9.70
2019-05-06T19:10:22.984Z,9.60
2019-05-06T19:12:53.326Z,9.60
2019-05-06T19:15:23.650Z,9.50
2019-05-06T19:17:54.004Z,9.50
2019-05-06T19:20:24.589Z,9.40
2019-05-06T19:22:54.957Z,9.40
2019-05-06T19:25:26.549Z,9.40
2019-05-06T19:27:57.561Z,9.50
2019-05-06T19:30:27.904Z,9.40
2019-05-06T19:32:58.339Z,9.40
2019-05-06T19:35:32.048Z,9.30
2019-05-06T19:38:03.004Z,9.10
2019-05-06T19:40:33.711Z,9.10
2019-05-06T19:43:04.034Z,9.00
2019-05-06T19:45:34.707Z,8.90
2019-05-06T19:48:05.063Z,8.90
2019-05-06T19:50:36.812Z,8.80
2019-05-06T19:53:07.212Z,8.70
2019-05-06T19:55:37.829Z,8.60
2019-05-06T19:58:08.158Z,8.50
2019-05-06T20:00:38.496Z,8.30
2019-05-06T20:03:08.821Z,8.20
2019-05-06T20:05:40.879Z,8.10
2019-05-06T20:08:28.949Z,8.00
2019-05-06T20:11:03.855Z,7.90
2019-05-06T20:13:35.254Z,7.70
2019-05-06T20:16:05.596Z,7.60
2019-05-06T20:18:36.896Z,7.50
2019-05-06T20:21:07.236Z,7.50
2019-05-06T20:23:37.567Z,7.40
2019-05-06T20:26:07.919Z,7.20
2019-05-06T20:28:38.237Z,7.20
2019-05-06T20:31:08.582Z,7.10
2019-05-06T20:33:38.973Z,7.00
2019-05-06T20:36:09.320Z,7.00
2019-05-06T20:38:39.657Z,6.90
2019-05-06T20:41:09.997Z,6.80
2019-05-06T20:43:42.311Z,6.80
2019-05-06T20:46:12.532Z,6.70
2019-05-06T20:48:43.926Z,6.60
2019-05-06T20:51:14.264Z,6.60
2019-05-06T20:53:44.593Z,6.50
2019-05-06T20:56:14.936Z,6.40
2019-05-06T20:58:45.334Z,6.40
2019-05-06T21:01:15.672Z,6.30
2019-05-06T21:03:45.999Z,6.30
2019-05-06T21:06:16.339Z,6.20
2019-05-06T21:08:47.630Z,6.20
2019-05-06T21:11:26.614Z,6.20
2019-05-06T21:13:50.487Z,6.10
2019-05-06T21:16:22.484Z,6.10
2019-05-06T21:18:52.939Z,6.00
2019-05-06T21:21:24.240Z,6.00
2019-05-06T21:24:06.301Z,5.90
2019-05-06T21:26:38.061Z,5.90
2019-05-06T21:29:08.380Z,5.90
2019-05-06T21:31:38.723Z,5.80
2019-05-06T21:34:09.058Z,5.80
2019-05-06T21:36:39.401Z,5.80
2019-05-06T21:39:22.542Z,5.80
2019-05-06T21:41:52.904Z,5.70
2019-05-06T21:44:23.228Z,5.70
2019-05-06T21:46:54.093Z,5.70
2019-05-06T21:49:24.477Z,5.70
2019-05-06T21:51:54.821Z,5.70
2019-05-06T21:54:25.154Z,5.70
2019-05-06T21:56:55.498Z,5.70
2019-05-06T21:59:25.820Z,5.70
2019-05-06T22:02:11.981Z,5.70
2019-05-06T22:04:43.301Z,5.80
2019-05-06T22:07:13.828Z,5.80
2019-05-06T22:09:44.157Z,5.80
2019-05-06T22:12:14.488Z,5.80
2019-05-06T22:14:44.819Z,5.80
2019-05-06T22:17:15.161Z,5.90
2019-05-06T22:19:45.491Z,5.90
2019-05-06T22:22:20.383Z,5.90
2019-05-06T22:24:55.516Z,5.90
2019-05-06T22:27:23.280Z,5.90
2019-05-06T22:29:53.606Z,5.90
2019-05-06T22:32:23.947Z,5.90
2019-05-06T22:34:54.272Z,5.90
2019-05-06T22:37:24.625Z,5.90
2019-05-06T22:39:55.018Z,5.90
2019-05-06T22:42:25.358Z,6.00
2019-05-06T22:44:55.685Z,6.00
2019-05-06T22:47:26.029Z,5.90
2019-05-06T22:49:56.353Z,5.90
2019-05-06T22:52:26.696Z,5.90
2019-05-06T22:54:57.030Z,5.90
2019-05-06T22:57:27.370Z,5.80
2019-05-06T22:59:57.693Z,5.80
2019-05-06T23:02:45.809Z,5.70
2019-05-06T23:05:16.204Z,5.70
2019-05-06T23:07:46.550Z,5.60
2019-05-06T23:10:17.046Z,5.60
2019-05-06T23:12:47.404Z,5.60
2019-05-06T23:15:17.738Z,5.50
2019-05-06T23:17:48.081Z,5.40
2019-05-06T23:20:18.472Z,5.40
2019-05-06T23:22:48.824Z,5.40
2019-05-06T23:25:19.148Z,5.30
2019-05-06T23:27:49.491Z,5.30
2019-05-06T23:30:19.815Z,5.30
2019-05-06T23:32:50.159Z,5.30
2019-05-06T23:35:22.015Z,5.40
2019-05-06T23:38:23.122Z,5.40
2019-05-06T23:41:48.050Z,5.40
2019-05-06T23:45:13.024Z,5.50
2019-05-06T23:48:38.076Z,5.60
2019-05-06T23:52:04.057Z,5.70
2019-05-06T23:55:29.470Z,5.80
2019-05-06T23:58:14.565Z,5.80
